Accueil
METAR-TAF:

METAR-TAF

Aéroports :

Craig, Colorado, États-Unis

latitude: 40-29-36N, longitude: 107-31-25W, altitude: 1888 m

Observation

Le bulletin a été fait il y a 50 minutes, à 10:53 UTC
Vent 3 kt de direction variable
Température 14°C
Humidité 63%
Pression 1022 hPa
Visibilité: 16.1 km
Ciel clair

METAR: KCAG 011053Z AUTO VRB03KT 10SM CLR 14/07 A3019 RMK AO2 SLP144 T01390067

Heure: 05:43 (11:43 UTC)


TAF: absent

Observations et prévisions météorologiques de plus de 4000 aéroports (messages METAR et TAF).

Les stations disponibles sont représentées par des disques jaunes et rouges sur la carte.

Passer la souris dessus pour voir le nom de la station.

Cliquer dessus pour voir les observations et prévisions météorologiques.

Pour changer de carte: cliquez sur les boutons verts avec une croix noire pour zoomer, sur le bouton vert avec un tiret pour effectuer un zoom arrière, ou sur les flèches vertes pour les cartes adjacentes.


METAR-TAF: